createdAt,value
2022-11-24T00:01:32.530Z,5.24
2022-11-24T00:04:07.877Z,5.18
2022-11-24T00:06:42.337Z,5.16
2022-11-24T00:09:11.373Z,5.16
2022-11-24T00:11:39.117Z,5.16
2022-11-24T00:14:07.319Z,5.14
2022-11-24T00:16:37.699Z,5.18
2022-11-24T00:19:11.999Z,5.16
2022-11-24T00:21:42.698Z,5.11
2022-11-24T00:24:11.850Z,5.00
2022-11-24T00:26:39.593Z,5.11
2022-11-24T00:29:09.389Z,5.13
2022-11-24T00:31:41.860Z,5.14
2022-11-24T00:34:14.106Z,5.18
2022-11-24T00:36:42.996Z,5.15
2022-11-24T00:39:15.642Z,5.18
2022-11-24T00:41:44.040Z,5.18
2022-11-24T00:44:11.561Z,5.24
2022-11-24T00:46:39.406Z,5.25
2022-11-24T00:49:07.445Z,5.29
2022-11-24T00:51:38.854Z,5.18
2022-11-24T00:54:10.421Z,5.10
2022-11-24T00:56:38.185Z,5.04
2022-11-24T00:59:06.139Z,5.09
2022-11-24T01:01:35.114Z,5.11
2022-11-24T01:04:04.125Z,5.11
2022-11-24T01:06:32.737Z,5.09
2022-11-24T01:09:00.402Z,5.10
2022-11-24T01:11:54.708Z,5.12
2022-11-24T01:14:25.159Z,5.17
2022-11-24T01:16:53.886Z,5.18
2022-11-24T01:19:23.108Z,5.20
2022-11-24T01:21:50.902Z,5.10
2022-11-24T01:24:23.818Z,5.19
2022-11-24T01:26:51.470Z,5.19
2022-11-24T01:29:20.067Z,5.23
2022-11-24T01:31:47.639Z,5.29
2022-11-24T01:34:16.063Z,5.26
2022-11-24T01:36:43.665Z,5.18
2022-11-24T01:39:12.078Z,5.16
2022-11-24T01:41:40.061Z,4.98
2022-11-24T01:44:26.877Z,4.91
2022-11-24T01:47:30.757Z,4.93
2022-11-24T01:50:02.010Z,5.00
2022-11-24T01:52:54.059Z,4.89
2022-11-24T01:55:28.560Z,4.88
2022-11-24T01:58:23.218Z,4.93
2022-11-24T02:00:52.847Z,4.89
2022-11-24T02:03:31.930Z,4.81
2022-11-24T02:06:02.671Z,4.75
2022-11-24T02:08:50.010Z,4.68
2022-11-24T02:11:19.333Z,4.65
2022-11-24T02:13:50.287Z,4.68
2022-11-24T02:16:21.680Z,4.72
2022-11-24T02:18:50.417Z,4.77
2022-11-24T02:21:19.872Z,4.81
2022-11-24T02:24:37.098Z,4.83
2022-11-24T02:27:05.154Z,4.89
2022-11-24T02:29:33.201Z,4.92
2022-11-24T02:32:06.365Z,5.01
2022-11-24T02:34:34.733Z,5.05
2022-11-24T02:37:02.531Z,5.10
2022-11-24T02:39:30.276Z,5.11
2022-11-24T02:42:05.191Z,5.09
2022-11-24T02:44:41.961Z,5.12
2022-11-24T02:47:12.992Z,5.17
2022-11-24T02:49:44.774Z,5.18
2022-11-24T02:52:12.606Z,5.19
2022-11-24T02:54:43.662Z,5.21
2022-11-24T02:57:12.490Z,5.24
2022-11-24T02:59:39.989Z,5.16
2022-11-24T03:02:08.294Z,5.04
2022-11-24T03:04:36.253Z,5.04
2022-11-24T03:07:05.280Z,5.09
2022-11-24T03:09:39.897Z,5.08
2022-11-24T03:12:07.837Z,5.11
2022-11-24T03:14:36.123Z,5.16
2022-11-24T03:17:04.336Z,5.16
2022-11-24T03:19:33.197Z,5.16
2022-11-24T03:22:01.821Z,5.15
2022-11-24T03:24:29.793Z,5.17
2022-11-24T03:26:58.572Z,5.06
2022-11-24T03:29:26.309Z,4.98
2022-11-24T03:31:53.930Z,4.92
2022-11-24T03:34:23.131Z,4.89
2022-11-24T03:36:51.063Z,4.88
2022-11-24T03:39:20.704Z,4.88
2022-11-24T03:41:51.425Z,4.85
2022-11-24T03:44:19.183Z,4.88
2022-11-24T03:46:46.931Z,4.92
2022-11-24T03:49:14.557Z,4.90
2022-11-24T03:51:42.236Z,4.83
2022-11-24T03:54:11.565Z,4.76
2022-11-24T03:56:40.294Z,4.71
2022-11-24T03:59:08.725Z,4.74
2022-11-24T04:01:38.123Z,4.67
2022-11-24T04:04:05.801Z,4.65
2022-11-24T04:06:36.366Z,4.66
2022-11-24T04:09:04.149Z,4.66
2022-11-24T04:11:50.445Z,4.67
2022-11-24T04:14:19.500Z,4.65
2022-11-24T04:16:48.259Z,4.65
2022-11-24T04:19:16.671Z,4.61
2022-11-24T04:21:44.233Z,4.53
2022-11-24T04:24:12.150Z,4.50
2022-11-24T04:26:39.764Z,4.53
2022-11-24T04:29:07.539Z,4.51
2022-11-24T04:31:35.115Z,4.44
2022-11-24T04:34:02.787Z,4.36
2022-11-24T04:36:31.686Z,4.34
2022-11-24T04:39:25.722Z,4.31
2022-11-24T04:41:48.436Z,4.39
2022-11-24T04:44:16.352Z,4.49
2022-11-24T04:46:44.083Z,4.65
2022-11-24T04:49:12.825Z,4.74
2022-11-24T04:51:41.702Z,4.80
2022-11-24T04:54:14.913Z,4.76
2022-11-24T04:56:44.055Z,4.68
2022-11-24T04:59:16.706Z,4.57
2022-11-24T05:01:46.953Z,4.48
2022-11-24T05:04:19.873Z,4.44
2022-11-24T05:06:48.328Z,4.29
2022-11-24T05:09:18.297Z,4.19
2022-11-24T05:11:46.986Z,4.05
2022-11-24T05:14:14.569Z,3.99
2022-11-24T05:16:44.785Z,3.91
2022-11-24T05:19:13.423Z,3.87
2022-11-24T05:21:42.003Z,3.75
2022-11-24T05:24:11.202Z,3.77
2022-11-24T05:26:39.746Z,3.75
2022-11-24T05:29:07.224Z,3.75
2022-11-24T05:31:34.895Z,3.70
2022-11-24T05:34:03.480Z,3.70
2022-11-24T05:36:52.902Z,3.74
2022-11-24T05:39:21.906Z,3.77
2022-11-24T05:41:49.595Z,3.77
2022-11-24T05:44:17.166Z,3.75
2022-11-24T05:46:46.127Z,3.70
2022-11-24T05:49:13.760Z,3.63
2022-11-24T05:51:42.816Z,3.70
2022-11-24T05:54:11.374Z,3.73
2022-11-24T05:56:39.278Z,3.83
2022-11-24T05:59:10.014Z,3.92
2022-11-24T06:01:38.948Z,4.04
2022-11-24T06:04:06.799Z,4.23
2022-11-24T06:06:34.483Z,4.56
2022-11-24T06:09:02.315Z,4.84
2022-11-24T06:11:29.910Z,5.12
2022-11-24T06:13:57.606Z,5.36
2022-11-24T06:16:25.462Z,5.54
2022-11-24T06:18:53.352Z,5.65
2022-11-24T06:21:21.035Z,5.89
2022-11-24T06:23:49.420Z,5.93
2022-11-24T06:26:18.674Z,5.96
2022-11-24T06:28:46.213Z,5.90
2022-11-24T06:31:13.881Z,5.85
2022-11-24T06:33:41.535Z,5.82
2022-11-24T06:36:14.812Z,5.79
2022-11-24T06:38:42.539Z,5.80
2022-11-24T06:41:15.866Z,5.85
2022-11-24T06:43:45.585Z,5.83
2022-11-24T06:46:19.790Z,5.83
2022-11-24T06:48:53.546Z,5.84
2022-11-24T06:51:21.270Z,5.87
2022-11-24T06:53:48.924Z,5.95
2022-11-24T06:56:21.720Z,6.01
2022-11-24T06:58:53.527Z,6.05
2022-11-24T07:01:28.008Z,6.11
2022-11-24T07:03:57.664Z,6.17
2022-11-24T07:06:27.037Z,6.25
2022-11-24T07:08:55.210Z,6.37
2022-11-24T07:11:24.945Z,6.37
2022-11-24T07:13:58.292Z,6.26
2022-11-24T07:16:28.612Z,6.34
2022-11-24T07:18:56.989Z,6.58
2022-11-24T07:21:26.506Z,6.59
2022-11-24T07:23:57.130Z,6.57
2022-11-24T07:26:25.985Z,6.43
2022-11-24T07:28:54.419Z,6.46
2022-11-24T07:31:30.692Z,6.49
2022-11-24T07:33:58.493Z,6.55
2022-11-24T07:36:28.002Z,6.60
2022-11-24T07:38:59.369Z,6.49
2022-11-24T07:41:27.256Z,6.56
2022-11-24T07:43:55.852Z,6.71
2022-11-24T07:46:23.311Z,6.74
2022-11-24T07:48:50.862Z,6.75
2022-11-24T07:51:19.226Z,6.83
2022-11-24T07:53:46.896Z,6.92
2022-11-24T07:56:14.679Z,6.94
2022-11-24T07:58:42.380Z,7.00
2022-11-24T08:01:18.029Z,7.06
2022-11-24T08:03:46.965Z,7.10
2022-11-24T08:06:27.200Z,7.04
2022-11-24T08:08:58.344Z,7.23
2022-11-24T08:11:27.063Z,7.30
2022-11-24T08:13:54.690Z,7.23
2022-11-24T08:16:22.569Z,7.18
2022-11-24T08:18:53.252Z,7.12
2022-11-24T08:21:25.376Z,7.23
2022-11-24T08:23:57.964Z,7.43
2022-11-24T08:26:27.676Z,7.65
2022-11-24T08:29:00.806Z,7.93
2022-11-24T08:31:38.348Z,8.22
2022-11-24T08:34:10.973Z,8.79
2022-11-24T08:36:38.970Z,8.96
2022-11-24T08:39:07.071Z,8.95
2022-11-24T08:41:34.803Z,8.56
2022-11-24T08:44:10.708Z,8.80
2022-11-24T08:46:38.868Z,8.84
2022-11-24T08:49:07.214Z,8.90
2022-11-24T08:51:35.285Z,8.93
2022-11-24T08:54:03.954Z,8.99
2022-11-24T08:56:34.721Z,8.98
2022-11-24T08:59:03.326Z,9.18
2022-11-24T09:01:38.246Z,9.06
2022-11-24T09:04:09.516Z,9.08
2022-11-24T09:06:38.349Z,9.11
2022-11-24T09:09:06.960Z,9.09
2022-11-24T09:11:35.135Z,8.97
2022-11-24T09:14:02.848Z,9.25
2022-11-24T09:16:31.443Z,9.07
2022-11-24T09:19:08.157Z,9.12
2022-11-24T09:21:39.283Z,9.13
2022-11-24T09:24:09.580Z,9.04
2022-11-24T09:26:43.035Z,9.27
2022-11-24T09:29:12.632Z,9.49
2022-11-24T09:31:40.763Z,9.04
2022-11-24T09:34:14.038Z,8.95
2022-11-24T09:36:43.008Z,8.96
2022-11-24T09:39:18.660Z,9.36
2022-11-24T09:42:05.826Z,9.46
2022-11-24T09:44:49.965Z,9.63
2022-11-24T09:47:56.798Z,9.78
2022-11-24T09:50:47.542Z,10.02
2022-11-24T09:53:41.874Z,9.92
2022-11-24T09:56:24.160Z,9.70
2022-11-24T09:59:02.917Z,9.40
2022-11-24T10:01:39.918Z,9.73
2022-11-24T10:04:29.687Z,10.04
2022-11-24T10:07:09.705Z,10.21
2022-11-24T10:10:27.135Z,10.14
2022-11-24T10:13:27.228Z,10.52
2022-11-24T10:16:57.428Z,10.44
2022-11-24T10:19:58.065Z,10.33
2022-11-24T10:23:15.125Z,10.03
2022-11-24T10:26:08.962Z,10.36
2022-11-24T10:28:45.397Z,10.36
2022-11-24T10:31:36.074Z,10.14
2022-11-24T10:34:28.902Z,10.24
2022-11-24T10:37:25.715Z,10.07
2022-11-24T10:40:55.937Z,10.21
2022-11-24T10:43:10.513Z,10.14
2022-11-24T10:45:39.929Z,10.18
2022-11-24T10:48:24.042Z,10.12
2022-11-24T10:51:01.116Z,10.10
2022-11-24T10:53:31.336Z,10.31
2022-11-24T10:56:05.900Z,9.79
2022-11-24T10:58:39.111Z,9.85
2022-11-24T11:01:14.986Z,10.06
2022-11-24T11:03:59.162Z,10.30
2022-11-24T11:06:31.253Z,10.55
2022-11-24T11:09:22.824Z,10.52
2022-11-24T11:11:53.946Z,10.87
2022-11-24T11:14:39.628Z,10.86
2022-11-24T11:17:36.480Z,11.21
2022-11-24T11:20:24.610Z,11.36
2022-11-24T11:22:52.332Z,11.37
2022-11-24T11:25:36.259Z,11.39
2022-11-24T11:28:29.999Z,11.65
2022-11-24T11:31:22.554Z,11.85
2022-11-24T11:34:30.499Z,11.14
2022-11-24T11:37:00.249Z,11.29
2022-11-24T11:39:37.906Z,11.22
2022-11-24T11:42:45.245Z,11.56
2022-11-24T11:45:35.982Z,11.74
2022-11-24T11:48:42.826Z,11.63
2022-11-24T11:51:45.008Z,12.38
2022-11-24T11:54:54.908Z,11.98
2022-11-24T11:57:34.639Z,14.40
2022-11-24T12:00:16.258Z,13.95
2022-11-24T12:03:14.780Z,14.17
2022-11-24T12:06:08.889Z,13.47
2022-11-24T12:09:21.555Z,13.75
2022-11-24T12:12:19.829Z,12.86
2022-11-24T12:15:22.912Z,12.25
2022-11-24T12:18:55.904Z,11.56
2022-11-24T12:21:26.169Z,11.27
2022-11-24T12:24:28.196Z,11.39
2022-11-24T12:27:12.025Z,11.20
2022-11-24T12:29:39.462Z,11.03
2022-11-24T12:32:38.893Z,11.10
2022-11-24T12:35:22.429Z,10.96
2022-11-24T12:38:20.503Z,10.84
2022-11-24T12:41:40.396Z,10.87
2022-11-24T12:44:30.346Z,11.23
2022-11-24T12:47:23.368Z,11.28
2022-11-24T12:50:08.986Z,11.34
2022-11-24T12:52:47.474Z,11.31
2022-11-24T12:55:22.184Z,11.39
2022-11-24T12:58:14.730Z,11.63
2022-11-24T13:01:15.984Z,11.47
2022-11-24T13:04:11.910Z,11.36
2022-11-24T13:07:11.437Z,11.34
2022-11-24T13:10:34.630Z,11.41
2022-11-24T13:13:13.371Z,11.40
2022-11-24T13:16:07.101Z,11.39
2022-11-24T13:18:59.762Z,11.37
2022-11-24T13:21:50.982Z,11.33
2022-11-24T13:24:19.544Z,11.35
2022-11-24T13:27:16.557Z,11.30
2022-11-24T13:29:46.829Z,11.33
2022-11-24T13:32:23.522Z,11.21
2022-11-24T13:34:54.889Z,11.16
2022-11-24T13:37:29.028Z,11.17
2022-11-24T13:40:20.731Z,11.13
2022-11-24T13:43:03.084Z,11.12
2022-11-24T13:45:40.069Z,11.13
2022-11-24T13:48:21.695Z,10.79
2022-11-24T13:50:56.934Z,10.82
2022-11-24T13:53:41.192Z,10.79
2022-11-24T13:56:15.114Z,10.68
2022-11-24T13:58:59.696Z,10.48
2022-11-24T14:01:32.564Z,10.39
2022-11-24T14:04:32.535Z,10.42
2022-11-24T14:07:13.606Z,10.23
2022-11-24T14:09:49.724Z,10.15
2022-11-24T14:12:26.733Z,10.22
2022-11-24T14:15:20.551Z,10.19
2022-11-24T14:17:48.291Z,10.24
2022-11-24T14:20:34.265Z,10.17
2022-11-24T14:23:01.912Z,9.89
2022-11-24T14:25:32.447Z,9.58
2022-11-24T14:28:01.070Z,9.35
2022-11-24T14:30:29.477Z,9.24
2022-11-24T14:33:00.457Z,9.15
2022-11-24T14:35:29.599Z,8.96
2022-11-24T14:37:57.817Z,8.92
2022-11-24T14:40:53.932Z,8.89
2022-11-24T14:43:30.503Z,8.74
2022-11-24T14:46:07.251Z,8.58
2022-11-24T14:48:46.815Z,8.40
2022-11-24T14:51:23.797Z,8.23
2022-11-24T14:53:55.278Z,8.09
2022-11-24T14:56:36.312Z,8.10
2022-11-24T14:59:21.580Z,7.92
2022-11-24T15:01:50.438Z,7.71
2022-11-24T15:05:01.129Z,7.71
2022-11-24T15:07:29.262Z,7.58
2022-11-24T15:10:00.805Z,7.41
2022-11-24T15:12:41.543Z,7.33
2022-11-24T15:15:15.158Z,7.23
2022-11-24T15:17:50.794Z,7.10
2022-11-24T15:20:43.417Z,7.03
2022-11-24T15:23:32.205Z,6.76
2022-11-24T15:26:02.608Z,6.50
2022-11-24T15:28:31.408Z,6.41
2022-11-24T15:31:14.464Z,6.28
2022-11-24T15:33:42.617Z,6.23
2022-11-24T15:36:12.331Z,6.21
2022-11-24T15:38:39.927Z,6.28
2022-11-24T15:41:19.993Z,6.27
2022-11-24T15:43:48.253Z,6.12
2022-11-24T15:46:16.381Z,6.03
2022-11-24T15:48:44.583Z,6.00
2022-11-24T15:51:15.052Z,5.89
2022-11-24T15:53:54.117Z,5.78
2022-11-24T15:56:32.173Z,5.63
2022-11-24T15:59:02.737Z,5.51
2022-11-24T16:01:33.135Z,5.40
2022-11-24T16:04:02.394Z,5.27
2022-11-24T16:06:30.436Z,5.22
2022-11-24T16:08:58.306Z,5.20
2022-11-24T16:11:27.581Z,5.25
2022-11-24T16:13:55.568Z,5.35
2022-11-24T16:16:25.330Z,5.50
2022-11-24T16:18:53.380Z,5.75
2022-11-24T16:21:20.969Z,5.92
2022-11-24T16:23:48.845Z,6.04
2022-11-24T16:26:17.202Z,6.19
2022-11-24T16:28:45.901Z,6.42
2022-11-24T16:31:16.782Z,6.61
2022-11-24T16:33:47.561Z,6.74
2022-11-24T16:36:16.561Z,6.86
2022-11-24T16:38:45.014Z,6.92
2022-11-24T16:41:13.024Z,7.00
2022-11-24T16:43:40.832Z,7.04
2022-11-24T16:46:16.201Z,7.05
2022-11-24T16:48:51.562Z,7.06
2022-11-24T16:51:22.536Z,7.10
2022-11-24T16:54:02.468Z,7.12
2022-11-24T16:56:31.626Z,7.19
2022-11-24T16:58:59.199Z,7.21
2022-11-24T17:01:27.023Z,7.13
2022-11-24T17:03:54.859Z,7.17
2022-11-24T17:06:22.607Z,7.18
2022-11-24T17:08:50.204Z,7.28
2022-11-24T17:11:24.361Z,7.37
2022-11-24T17:13:53.068Z,7.40
2022-11-24T17:16:23.505Z,7.39
2022-11-24T17:18:51.854Z,7.35
2022-11-24T17:21:25.645Z,7.31
2022-11-24T17:23:55.460Z,7.28
2022-11-24T17:26:24.512Z,7.32
2022-11-24T17:28:52.927Z,7.36
2022-11-24T17:31:33.309Z,7.41
2022-11-24T17:34:03.265Z,7.38
2022-11-24T17:36:33.736Z,7.30
2022-11-24T17:39:04.575Z,7.38
2022-11-24T17:41:33.965Z,7.39
2022-11-24T17:44:01.674Z,7.40
2022-11-24T17:46:30.955Z,7.45
2022-11-24T17:49:00.260Z,7.49
2022-11-24T17:51:27.898Z,7.54
2022-11-24T17:53:57.310Z,7.54
2022-11-24T17:56:27.987Z,7.55
2022-11-24T17:58:59.246Z,7.63
2022-11-24T18:01:30.205Z,7.65
2022-11-24T18:03:58.505Z,7.63
2022-11-24T18:06:28.572Z,7.61
2022-11-24T18:08:57.818Z,7.59
2022-11-24T18:11:31.895Z,7.62
2022-11-24T18:14:04.401Z,7.71
2022-11-24T18:16:34.880Z,7.79
2022-11-24T18:19:09.095Z,7.83
2022-11-24T18:21:40.187Z,7.83
2022-11-24T18:24:10.310Z,7.87
2022-11-24T18:26:41.921Z,7.83
2022-11-24T18:29:11.587Z,7.70
2022-11-24T18:31:39.737Z,7.64
2022-11-24T18:34:07.520Z,7.55
2022-11-24T18:36:35.926Z,7.58
2022-11-24T18:39:07.410Z,7.59
2022-11-24T18:41:35.891Z,7.65
2022-11-24T18:44:08.152Z,7.69
2022-11-24T18:46:37.495Z,7.69
2022-11-24T18:49:07.095Z,7.62
2022-11-24T18:51:35.553Z,7.52
2022-11-24T18:54:05.706Z,7.46
2022-11-24T18:56:33.650Z,7.47
2022-11-24T18:59:01.316Z,7.47
2022-11-24T19:01:29.832Z,7.51
2022-11-24T19:03:59.687Z,7.51
2022-11-24T19:06:34.484Z,7.48
2022-11-24T19:09:11.565Z,7.40
2022-11-24T19:11:42.036Z,7.40
2022-11-24T19:14:15.437Z,7.43
2022-11-24T19:16:44.226Z,7.44
2022-11-24T19:19:13.609Z,7.44
2022-11-24T19:21:41.716Z,7.45
2022-11-24T19:24:14.059Z,7.48
2022-11-24T19:26:43.645Z,7.50
2022-11-24T19:29:11.519Z,7.55
2022-11-24T19:31:39.834Z,7.48
2022-11-24T19:34:08.255Z,7.46
2022-11-24T19:36:36.416Z,7.52
2022-11-24T19:39:05.348Z,7.55
2022-11-24T19:41:33.798Z,7.59
2022-11-24T19:44:01.866Z,7.50
2022-11-24T19:46:30.209Z,7.61
2022-11-24T19:49:03.484Z,7.73
2022-11-24T19:51:34.732Z,7.81
2022-11-24T19:54:06.980Z,7.80
2022-11-24T19:56:37.501Z,7.78
2022-11-24T19:59:07.492Z,7.77
2022-11-24T20:01:40.674Z,7.75
2022-11-24T20:04:15.550Z,7.66
2022-11-24T20:06:46.693Z,7.64
2022-11-24T20:09:17.509Z,7.59
2022-11-24T20:11:45.940Z,7.65
2022-11-24T20:14:18.442Z,7.66
2022-11-24T20:16:47.775Z,7.62
2022-11-24T20:19:17.512Z,7.63
2022-11-24T20:21:47.837Z,7.58
2022-11-24T20:24:24.709Z,7.52
2022-11-24T20:26:58.197Z,7.49
2022-11-24T20:29:28.414Z,7.49
2022-11-24T20:31:56.671Z,7.47
2022-11-24T20:34:26.499Z,7.46
2022-11-24T20:36:54.753Z,7.50
2022-11-24T20:39:27.734Z,7.46
2022-11-24T20:41:56.349Z,7.46
2022-11-24T20:44:26.613Z,7.35
2022-11-24T20:46:57.371Z,7.36
2022-11-24T20:49:25.987Z,7.38
2022-11-24T20:51:57.367Z,7.41
2022-11-24T20:54:25.528Z,7.49
2022-11-24T20:56:53.167Z,7.50
2022-11-24T20:59:24.300Z,7.51
2022-11-24T21:01:55.352Z,7.47
2022-11-24T21:04:27.383Z,7.46
2022-11-24T21:06:55.716Z,7.48
2022-11-24T21:09:23.350Z,7.44
2022-11-24T21:11:50.928Z,7.51
2022-11-24T21:14:18.527Z,7.57
2022-11-24T21:16:46.357Z,7.58
2022-11-24T21:19:17.803Z,7.59
2022-11-24T21:21:47.552Z,7.59
2022-11-24T21:24:21.501Z,7.56
2022-11-24T21:26:51.185Z,7.50
2022-11-24T21:29:22.126Z,7.46
2022-11-24T21:31:49.854Z,7.37
2022-11-24T21:34:19.452Z,7.31
2022-11-24T21:36:47.572Z,7.31
2022-11-24T21:39:15.829Z,7.31
2022-11-24T21:41:43.898Z,7.30
2022-11-24T21:44:15.238Z,7.27
2022-11-24T21:46:48.260Z,7.25
2022-11-24T21:49:20.062Z,7.24
2022-11-24T21:51:47.785Z,7.24
2022-11-24T21:54:16.036Z,7.27
2022-11-24T21:56:44.671Z,7.25
2022-11-24T21:59:13.780Z,7.21
2022-11-24T22:01:41.505Z,7.08
2022-11-24T22:04:09.736Z,7.08
2022-11-24T22:06:37.453Z,7.17
2022-11-24T22:09:05.413Z,7.20
2022-11-24T22:11:33.041Z,7.24
2022-11-24T22:14:02.012Z,7.29
2022-11-24T22:16:29.960Z,7.32
2022-11-24T22:19:00.458Z,7.29
2022-11-24T22:21:30.789Z,7.37
2022-11-24T22:24:01.361Z,7.36
2022-11-24T22:26:31.640Z,7.39
2022-11-24T22:28:59.358Z,7.41
2022-11-24T22:31:30.964Z,7.38
2022-11-24T22:34:00.963Z,7.38
2022-11-24T22:36:30.537Z,7.35
2022-11-24T22:39:05.691Z,7.34
2022-11-24T22:41:35.357Z,7.33
2022-11-24T22:44:06.550Z,7.35
2022-11-24T22:46:34.304Z,7.39
2022-11-24T22:49:02.555Z,7.45
2022-11-24T22:51:34.066Z,7.46
2022-11-24T22:54:04.447Z,7.49
2022-11-24T22:56:37.585Z,7.54
2022-11-24T22:59:05.435Z,7.57
2022-11-24T23:01:33.980Z,7.58
2022-11-24T23:04:09.725Z,7.60
2022-11-24T23:06:37.332Z,7.60
2022-11-24T23:09:06.364Z,7.64
2022-11-24T23:11:42.681Z,7.69
2022-11-24T23:14:16.557Z,7.77
2022-11-24T23:16:44.522Z,7.80
2022-11-24T23:19:12.374Z,7.87
2022-11-24T23:21:40.377Z,7.90
2022-11-24T23:24:10.520Z,7.94
2022-11-24T23:26:41.091Z,7.95
2022-11-24T23:29:10.726Z,7.92
2022-11-24T23:31:40.632Z,7.93
2022-11-24T23:34:08.900Z,8.00
2022-11-24T23:36:36.606Z,8.00
2022-11-24T23:39:08.595Z,8.00
2022-11-24T23:41:37.089Z,8.03
2022-11-24T23:44:04.803Z,8.10
2022-11-24T23:46:32.251Z,8.13
2022-11-24T23:49:00.183Z,8.14
2022-11-24T23:51:33.443Z,8.20
2022-11-24T23:54:01.590Z,8.23
2022-11-24T23:56:32.950Z,8.23
2022-11-24T23:59:04.924Z,8.22
